Newdale, ID (83436)

3:10 AM MDT on May 22, 2015 (GMT -0600)
Parkinson Seed Farm, Saint Anthony | | Change Station
CLOSE
Current Station
Personal Weather Station
Location: Ashton, ID
Elevation: 5358 ft
Nearby Weather Stations

Elev 5358 ft 43.94 °N, 111.48 °W | Updated 15 seconds ago

Overcast
Overcast
47.3 °F
Feels Like 46 °F
N
4.0
Wind Variable Wind from NNE
Gusts 6.0 mph

Today
High -- | Low -- °F
--% Chance of Precip.
Yesterday
High -- | Low -- °F
Precip. -- in
5:53 AM 8:52 PM
Waxing Crescent, 20% visible
Pressure 29.88 in
Visibility 10.0 miles
Clouds Mostly Cloudy 9500 ft
Windchill 46 °F
Dew Point 45 °F
Humidity 90%
Rainfall 0.11 in
Snow Depth Not available.
UV 0 out of 12
Pollen 6.90 out of 12
Air Quality Not available.
Flu Activity No Activity
METAR KRXE 220853Z AUTO 04003KT 10SM BKN095 09/07 A2995 RMK AO2 SLP117 T00940072 58002

More Conditions Fewer Conditions

Pressure 29.88 in
Visibility 10.0 miles
Clouds Mostly Cloudy 9500 ft
Windchill 46 °F
Dew Point 45 °F
Humidity 90%
Rainfall 0.11 in
Snow Depth Not available.
UV 0 out of 12
Pollen 6.90 out of 12
Air Quality Not available.
Flu Activity No Activity
METAR KRXE 220853Z AUTO 04003KT 10SM BKN095 09/07 A2995 RMK AO2 SLP117 T00940072 58002

More Conditions Fewer Conditions

10-Day Weather Forecast

Almanac

Astronomy

May. 22, 2015 Rise Set
Actual Time
Civil Twilight
Nautical Twilight
Astronomical Twilight
Moon
Length of Visible Light
Length of Day
Tomorrow will be .
, % of the Moon is Illuminated

Today's Extremes

State Highs State Lows

Community

WunderPhotos

Upload Photos

1,823,195 photos uploaded!

WunderBlogs® & News

Nearby

Air Quality

  Air Quality AQ Index Pollutant
Not available.

Snow Depth

Station Depth Elevation

Earthquake Activity

City Distance Mag. Time & Date
Minimum magnitude displayed is 2.5.

Coastal Water Temperatures

Place Temperature

Stations

Nearby Weather Stations

Station Location Temp. Windchill Dew Point Humidity Wind Precip. Elev Updated Type